Time;durP1;ratioP1;P1;durP2;ratioP2;P2;SDS_P1;SDS_P2;PMS_P1;PMS_P2;Temp;Humidity;BMP_temperature;BMP_pressure;BME280_temperature;BME280_humidity;BME280_pressure;Samples;Min_cycle;Max_cycle;Signal;HPM_P1;HPM_P2
2023/10/15 00:01:55;;;;;;;25.17;16.35;;;;;;;;;;10538813;28;20477;-65
2023/10/15 00:06:55;;;;;;;23.85;15.90;;;;;;;;;;10539564;28;20035;-65
2023/10/15 00:11:57;;;;;;;26.15;16.10;;;;;;;;;;10537057;28;20063;-64
2023/10/15 00:16:59;;;;;;;27.27;16.20;;;;;;;;;;10537785;28;20466;-64
2023/10/15 00:22:00;;;;;;;23.60;16.20;;;;;;;;;;10537248;28;20393;-63
2023/10/15 00:27:01;;;;;;;24.65;16.40;;;;;;;;;;10536780;28;20020;-65
2023/10/15 00:32:03;;;;;;;24.20;15.05;;;;;;;;;;10535943;28;20480;-65
2023/10/15 00:37:05;;;;;;;28.67;16.73;;;;;;;;;;10537108;28;20043;-65
2023/10/15 00:42:05;;;;;;;23.25;15.70;;;;;;;;;;10537344;28;20031;-65
2023/10/15 00:47:15;;;;;;;26.80;14.82;;;;;;;;;;10537482;28;20052;-62
2023/10/15 00:52:15;;;;;;;20.38;15.73;;;;;;;;;;10536482;28;20028;-64
2023/10/15 00:57:25;;;;;;;22.88;15.13;;;;;;;;;;10537240;28;20020;-64
2023/10/15 01:02:28;;;;;;;20.17;15.15;;;;;;;;;;10536499;28;20032;-63
2023/10/15 01:07:51;;;;;;;20.60;14.52;;;;;;;;;;10535415;28;20020;-65
2023/10/15 01:12:50;;;;;;;22.75;14.30;;;;;;;;;;10534937;28;20047;-65
2023/10/15 01:17:54;;;;;;;22.48;15.02;;;;;;;;;;10535952;28;20024;-65
2023/10/15 01:22:55;;;;;;;26.45;15.07;;;;;;;;;;10534444;28;20024;-65
2023/10/15 01:28:00;;;;;;;24.73;13.77;;;;;;;;;;10535064;28;20084;-63
2023/10/15 01:33:06;;;;;;;18.48;14.55;;;;;;;;;;10534332;28;20113;-66
2023/10/15 01:38:20;;;;;;;19.88;13.60;;;;;;;;;;10534875;28;20047;-66
2023/10/15 01:43:22;;;;;;;20.60;13.65;;;;;;;;;;10534250;28;20047;-65
2023/10/15 01:48:32;;;;;;;21.60;13.80;;;;;;;;;;10534315;28;20044;-65
2023/10/15 01:53:34;;;;;;;26.27;13.45;;;;;;;;;;10533514;28;20124;-66
2023/10/15 01:58:39;;;;;;;18.95;13.30;;;;;;;;;;10534540;28;20036;-66
2023/10/15 02:03:41;;;;;;;23.25;12.93;;;;;;;;;;10533697;28;20398;-66
2023/10/15 02:08:41;;;;;;;17.15;12.77;;;;;;;;;;10533952;28;20030;-66
2023/10/15 02:13:45;;;;;;;18.20;13.23;;;;;;;;;;10533206;28;20387;-65
2023/10/15 02:18:45;;;;;;;18.90;12.98;;;;;;;;;;10533695;28;20020;-66
2023/10/15 02:23:50;;;;;;;29.55;13.45;;;;;;;;;;10532911;28;20024;-66
2023/10/15 02:28:54;;;;;;;18.83;13.02;;;;;;;;;;10533773;28;20028;-64
2023/10/15 02:33:55;;;;;;;18.10;13.20;;;;;;;;;;10532134;28;20032;-63
2023/10/15 02:38:56;;;;;;;19.88;12.88;;;;;;;;;;10533052;28;20027;-64
2023/10/15 02:43:57;;;;;;;19.00;12.43;;;;;;;;;;10532558;28;20020;-63
2023/10/15 02:48:58;;;;;;;15.65;13.25;;;;;;;;;;10532734;28;20044;-65
2023/10/15 02:59:18;;;;;;;17.42;13.50;;;;;;;;;;10533385;28;20044;-65
2023/10/15 03:04:32;;;;;;;18.70;13.18;;;;;;;;;;10532055;28;20028;-65
2023/10/15 03:14:54;;;;;;;16.05;12.68;;;;;;;;;;10373211;28;20057;-62
2023/10/15 03:20:10;;;;;;;15.00;11.68;;;;;;;;;;10373614;28;20026;-61
2023/10/15 03:25:16;;;;;;;19.27;12.73;;;;;;;;;;10358801;28;20033;-61
2023/10/15 03:30:23;;;;;;;17.27;12.32;;;;;;;;;;10373426;28;20037;-61
2023/10/15 03:35:33;;;;;;;19.48;12.52;;;;;;;;;;10373374;28;20053;-59
2023/10/15 03:40:47;;;;;;;21.63;13.80;;;;;;;;;;10373271;28;20054;-62
2023/10/15 03:45:52;;;;;;;16.98;12.35;;;;;;;;;;10375955;28;20026;-64
2023/10/15 03:50:56;;;;;;;14.55;12.05;;;;;;;;;;10381059;28;20091;-60
2023/10/15 03:56:01;;;;;;;17.88;11.85;;;;;;;;;;10380376;28;20029;-61
2023/10/15 04:06:13;;;;;;;;;;;;;;;;;;10380687;28;20028;-64
2023/10/15 04:11:26;;;;;;;23.60;13.25;;;;;;;;;;10379615;28;19956;-60
2023/10/15 04:16:31;;;;;;;17.80;12.50;;;;;;;;;;10379683;28;20363;-60
2023/10/15 04:21:33;;;;;;;16.17;12.90;;;;;;;;;;10379380;28;20022;-60
2023/10/15 04:26:42;;;;;;;16.88;12.13;;;;;;;;;;10379930;28;20030;-59
2023/10/15 04:32:00;;;;;;;19.15;12.18;;;;;;;;;;10379481;28;20410;-59
2023/10/15 04:37:16;;;;;;;17.85;11.85;;;;;;;;;;10378840;28;20026;-59
2023/10/15 04:42:21;;;;;;;17.67;12.35;;;;;;;;;;10379290;28;20034;-57
2023/10/15 04:47:37;;;;;;;18.27;12.30;;;;;;;;;;10379142;28;20022;-59
2023/10/15 04:52:39;;;;;;;18.75;12.27;;;;;;;;;;10378183;28;20371;-58
2023/10/15 04:57:41;;;;;;;17.45;11.98;;;;;;;;;;10378024;28;20409;-58
2023/10/15 05:02:42;;;;;;;19.65;12.65;;;;;;;;;;10377978;28;20037;-58
2023/10/15 05:07:44;;;;;;;28.45;12.88;;;;;;;;;;10377610;28;20097;-59
2023/10/15 05:12:45;;;;;;;15.50;12.13;;;;;;;;;;10377641;28;20049;-59
2023/10/15 05:17:47;;;;;;;18.80;13.23;;;;;;;;;;10377962;28;20025;-60
2023/10/15 05:22:50;;;;;;;16.58;12.20;;;;;;;;;;10377060;28;20104;-61
2023/10/15 05:27:51;;;;;;;19.30;13.30;;;;;;;;;;10377038;28;20025;-60
2023/10/15 05:32:53;;;;;;;17.88;13.00;;;;;;;;;;10377279;28;20048;-61
2023/10/15 05:37:55;;;;;;;18.27;12.55;;;;;;;;;;10376605;28;20026;-59
2023/10/15 05:42:56;;;;;;;18.48;13.75;;;;;;;;;;10376402;28;20176;-60
2023/10/15 05:47:58;;;;;;;33.95;14.43;;;;;;;;;;10376755;28;20084;-61
2023/10/15 05:52:59;;;;;;;20.42;13.23;;;;;;;;;;10375813;28;20034;-60
2023/10/15 05:58:01;;;;;;;16.10;13.02;;;;;;;;;;10375873;28;20026;-58
2023/10/15 06:03:02;;;;;;;20.70;13.20;;;;;;;;;;10375682;28;20030;-58
2023/10/15 06:08:06;;;;;;;18.83;14.35;;;;;;;;;;10375503;28;20056;-61
2023/10/15 06:13:09;;;;;;;24.13;13.90;;;;;;;;;;10375024;28;20382;-58
2023/10/15 06:18:11;;;;;;;19.38;13.07;;;;;;;;;;10375090;28;20064;-60
2023/10/15 06:23:13;;;;;;;22.17;13.15;;;;;;;;;;10374951;28;20100;-61
2023/10/15 06:28:15;;;;;;;20.88;13.68;;;;;;;;;;10375278;28;20034;-60
2023/10/15 06:33:18;;;;;;;19.02;12.55;;;;;;;;;;10374689;28;20053;-59
2023/10/15 06:38:19;;;;;;;17.48;13.02;;;;;;;;;;10374507;28;20056;-64
2023/10/15 06:43:21;;;;;;;21.05;13.10;;;;;;;;;;10374496;28;20046;-65
2023/10/15 06:48:23;;;;;;;19.25;13.65;;;;;;;;;;10374983;28;20036;-65
2023/10/15 06:53:24;;;;;;;15.80;12.57;;;;;;;;;;10374221;28;20033;-62
2023/10/15 06:58:28;;;;;;;16.50;12.00;;;;;;;;;;10374905;28;20080;-64
2023/10/15 07:03:30;;;;;;;16.00;12.00;;;;;;;;;;10373970;28;20033;-64
2023/10/15 07:08:31;;;;;;;21.15;13.60;;;;;;;;;;10374070;28;20041;-66
2023/10/15 07:13:34;;;;;;;16.27;12.82;;;;;;;;;;10373725;28;20065;-63
2023/10/15 07:18:36;;;;;;;18.42;13.05;;;;;;;;;;10373769;28;20084;-65
2023/10/15 07:23:38;;;;;;;21.48;13.65;;;;;;;;;;10381053;28;20037;-63
2023/10/15 07:28:39;;;;;;;18.05;12.82;;;;;;;;;;10382170;28;20041;-63
2023/10/15 07:33:41;;;;;;;18.67;12.48;;;;;;;;;;10381408;28;20030;-63
2023/10/15 07:38:43;;;;;;;13.48;11.48;;;;;;;;;;10381251;28;20026;-62
2023/10/15 07:43:44;;;;;;;16.90;11.77;;;;;;;;;;10380974;28;20072;-61
2023/10/15 07:48:46;;;;;;;17.92;11.93;;;;;;;;;;10381462;28;20026;-61
2023/10/15 07:53:47;;;;;;;18.75;12.60;;;;;;;;;;10381016;28;20038;-66
2023/10/15 07:58:50;;;;;;;20.35;11.02;;;;;;;;;;10380471;28;20025;-65
2023/10/15 08:03:51;;;;;;;22.70;11.45;;;;;;;;;;10380267;28;20037;-64
2023/10/15 08:08:53;;;;;;;14.13;10.38;;;;;;;;;;10380110;28;20017;-65
2023/10/15 08:13:55;;;;;;;31.08;11.02;;;;;;;;;;10379509;28;20053;-63
2023/10/15 08:18:58;;;;;;;15.23;10.60;;;;;;;;;;10379636;28;20030;-60
2023/10/15 08:24:00;;;;;;;18.55;10.50;;;;;;;;;;10379231;28;20113;-59
2023/10/15 08:29:02;;;;;;;18.85;10.25;;;;;;;;;;10379320;28;20049;-65
2023/10/15 08:34:04;;;;;;;28.75;9.93;;;;;;;;;;10378588;28;20037;-61
2023/10/15 08:39:07;;;;;;;17.98;10.02;;;;;;;;;;10380060;28;20080;-62
2023/10/15 08:44:08;;;;;;;14.35;9.70;;;;;;;;;;10378680;28;20079;-61
2023/10/15 08:49:11;;;;;;;18.33;9.57;;;;;;;;;;10379686;28;20361;-61
2023/10/15 08:54:15;;;;;;;23.17;9.00;;;;;;;;;;10361037;28;20038;-62
2023/10/15 08:59:18;;;;;;;18.38;8.98;;;;;;;;;;10360991;28;20152;-64
2023/10/15 09:04:21;;;;;;;19.10;9.32;;;;;;;;;;10360734;28;20071;-61
2023/10/15 09:09:23;;;;;;;19.95;9.00;;;;;;;;;;10377571;28;20034;-64
2023/10/15 09:14:42;;;;;;;11.60;8.38;;;;;;;;;;10377307;28;20046;-65
2023/10/15 09:19:47;;;;;;;14.57;8.23;;;;;;;;;;10377197;28;20109;-64
2023/10/15 09:24:49;;;;;;;16.98;11.18;;;;;;;;;;10378328;28;20018;-66
2023/10/15 09:30:18;;;;;;;14.00;9.60;;;;;;;;;;10377421;28;20026;-64
2023/10/15 09:35:21;;;;;;;12.88;8.52;;;;;;;;;;10376594;28;20124;-66
2023/10/15 09:40:24;;;;;;;13.40;9.23;;;;;;;;;;10376536;28;20076;-66
2023/10/15 09:45:27;;;;;;;13.23;8.05;;;;;;;;;;10375547;28;20036;-63
2023/10/15 09:50:32;;;;;;;15.77;8.60;;;;;;;;;;10376739;28;20051;-64
2023/10/15 09:55:34;;;;;;;11.70;9.07;;;;;;;;;;10375829;28;20033;-64
2023/10/15 10:01:16;;;;;;;18.58;11.45;;;;;;;;;;10375719;28;20034;-65
2023/10/15 10:06:48;;;;;;;15.95;10.73;;;;;;;;;;10376118;28;20065;-65
2023/10/15 10:12:26;;;;;;;15.43;10.93;;;;;;;;;;10375600;28;20057;-65
2023/10/15 10:17:29;;;;;;;21.30;11.57;;;;;;;;;;10375891;28;20024;-63
2023/10/15 10:22:32;;;;;;;20.02;10.80;;;;;;;;;;10375547;28;20099;-68
2023/10/15 10:27:45;;;;;;;26.17;10.43;;;;;;;;;;10374921;28;20030;-56
2023/10/15 10:32:46;;;;;;;21.13;10.95;;;;;;;;;;10374549;28;20038;-55
2023/10/15 10:38:18;;;;;;;17.40;10.18;;;;;;;;;;10374780;28;20022;-56
2023/10/15 10:43:27;;;;;;;17.58;10.88;;;;;;;;;;10358608;28;20030;-52
2023/10/15 10:48:38;;;;;;;19.08;8.98;;;;;;;;;;10374406;28;20065;-58
2023/10/15 10:54:00;;;;;;;16.92;8.88;;;;;;;;;;10375819;28;20112;-56
2023/10/15 10:59:01;;;;;;;11.40;8.40;;;;;;;;;;10387798;28;20034;-54
2023/10/15 11:04:06;;;;;;;11.98;9.13;;;;;;;;;;10369789;28;20156;-55
2023/10/15 11:09:26;;;;;;;13.00;9.05;;;;;;;;;;10371216;28;20026;-50
2023/10/15 11:14:28;;;;;;;22.73;10.45;;;;;;;;;;10387259;28;20052;-50
2023/10/15 11:19:32;;;;;;;14.50;9.95;;;;;;;;;;10387296;28;20080;-51
2023/10/15 11:24:34;;;;;;;14.18;9.98;;;;;;;;;;10387330;28;20108;-53
2023/10/15 11:29:36;;;;;;;19.23;9.70;;;;;;;;;;10387734;28;20025;-57
2023/10/15 11:34:40;;;;;;;19.08;8.88;;;;;;;;;;10387559;28;20217;-57
2023/10/15 11:39:43;;;;;;;20.17;10.27;;;;;;;;;;10387597;28;20053;-57
2023/10/15 11:44:46;;;;;;;14.40;8.98;;;;;;;;;;10386995;28;20461;-57
2023/10/15 11:49:50;;;;;;;40.60;9.35;;;;;;;;;;10386754;28;20026;-55
2023/10/15 11:54:51;;;;;;;22.30;7.63;;;;;;;;;;10386603;28;20034;-56
2023/10/15 11:59:53;;;;;;;29.23;7.15;;;;;;;;;;10386650;28;20048;-50
2023/10/15 12:04:56;;;;;;;26.30;7.70;;;;;;;;;;10386216;28;20037;-49
2023/10/15 12:09:58;;;;;;;14.75;7.38;;;;;;;;;;10379404;28;20026;-48
2023/10/15 12:15:00;;;;;;;14.48;7.30;;;;;;;;;;10379686;28;20077;-49
2023/10/15 12:20:06;;;;;;;18.65;6.72;;;;;;;;;;10380221;28;20076;-48
2023/10/15 12:25:08;;;;;;;21.55;6.57;;;;;;;;;;10380072;28;20033;-48
2023/10/15 12:30:32;;;;;;;15.18;6.95;;;;;;;;;;10379268;28;20053;-49
2023/10/15 12:35:32;;;;;;;10.43;6.43;;;;;;;;;;10379222;28;20084;-50
2023/10/15 12:40:38;;;;;;;17.42;6.20;;;;;;;;;;10380113;28;20057;-52
2023/10/15 12:45:39;;;;;;;20.17;6.18;;;;;;;;;;10378718;28;20416;-52
2023/10/15 12:50:41;;;;;;;20.98;5.80;;;;;;;;;;10379690;28;20022;-50
2023/10/15 12:55:43;;;;;;;17.17;6.60;;;;;;;;;;10378301;28;20065;-56
2023/10/15 13:00:48;;;;;;;23.15;5.82;;;;;;;;;;10377968;28;20029;-58
2023/10/15 13:05:50;;;;;;;16.92;5.90;;;;;;;;;;10379199;28;20022;-48
2023/10/15 13:10:51;;;;;;;10.93;5.05;;;;;;;;;;10360542;28;20046;-52
2023/10/15 13:15:53;;;;;;;12.90;5.18;;;;;;;;;;10378156;28;20033;-50
2023/10/15 13:20:57;;;;;;;11.07;4.40;;;;;;;;;;10376147;28;20458;-49
2023/10/15 13:25:58;;;;;;;12.60;5.10;;;;;;;;;;10378368;28;20032;-53
2023/10/15 13:31:02;;;;;;;10.27;4.55;;;;;;;;;;10376958;28;20084;-54
2023/10/15 13:36:04;;;;;;;19.85;4.78;;;;;;;;;;10376764;28;20033;-51
2023/10/15 13:41:10;;;;;;;13.10;4.10;;;;;;;;;;10376637;28;20481;-54
2023/10/15 13:46:13;;;;;;;12.63;4.53;;;;;;;;;;10376464;28;20041;-52
2023/10/15 13:51:15;;;;;;;8.65;4.60;;;;;;;;;;10376109;28;20121;-52
2023/10/15 13:56:16;;;;;;;6.95;4.47;;;;;;;;;;10358406;28;20087;-62
2023/10/15 14:01:18;;;;;;;10.63;4.40;;;;;;;;;;10375865;28;20025;-50
2023/10/15 14:06:19;;;;;;;13.40;4.35;;;;;;;;;;10375806;28;20060;-49
2023/10/15 14:11:21;;;;;;;9.85;4.05;;;;;;;;;;10375383;28;20052;-49
2023/10/15 14:16:23;;;;;;;9.95;4.22;;;;;;;;;;10375431;28;20033;-48
2023/10/15 14:21:25;;;;;;;5.93;3.83;;;;;;;;;;10375237;28;20076;-49
2023/10/15 14:26:27;;;;;;;13.23;3.90;;;;;;;;;;10375106;28;20034;-61
2023/10/15 14:31:28;;;;;;;14.10;3.35;;;;;;;;;;10374542;28;20033;-49
2023/10/15 14:36:36;;;;;;;6.15;3.13;;;;;;;;;;10374842;28;20036;-50
2023/10/15 14:41:38;;;;;;;11.57;3.72;;;;;;;;;;10374565;28;20026;-54
2023/10/15 14:46:41;;;;;;;5.22;3.42;;;;;;;;;;10374418;28;20056;-49
2023/10/15 14:51:43;;;;;;;4.85;2.88;;;;;;;;;;10374492;28;20026;-53
2023/10/15 14:56:45;;;;;;;6.53;3.67;;;;;;;;;;10374250;28;20100;-49
2023/10/15 15:01:46;;;;;;;6.47;3.20;;;;;;;;;;10357362;28;20037;-48
2023/10/15 15:06:48;;;;;;;5.47;3.17;;;;;;;;;;10374720;28;20054;-51
2023/10/15 15:11:50;;;;;;;11.02;3.15;;;;;;;;;;10373778;28;20038;-51
2023/10/15 15:16:52;;;;;;;4.63;2.75;;;;;;;;;;10374416;28;20053;-51
2023/10/15 15:21:55;;;;;;;6.28;3.00;;;;;;;;;;10374357;28;20370;-49
2023/10/15 15:26:56;;;;;;;5.50;3.20;;;;;;;;;;10374280;28;20038;-50
2023/10/15 15:31:58;;;;;;;5.93;2.90;;;;;;;;;;10373590;28;20469;-54
2023/10/15 15:37:00;;;;;;;7.28;2.60;;;;;;;;;;10374060;28;20087;-63
2023/10/15 15:42:02;;;;;;;6.20;2.83;;;;;;;;;;10375934;28;20026;-63
2023/10/15 15:47:03;;;;;;;7.65;3.00;;;;;;;;;;10380980;28;20082;-62
2023/10/15 15:52:08;;;;;;;11.85;3.00;;;;;;;;;;10380791;28;20029;-63
2023/10/15 15:57:12;;;;;;;6.38;2.80;;;;;;;;;;10381248;28;20030;-62
2023/10/15 16:02:13;;;;;;;5.50;2.60;;;;;;;;;;10380393;28;20029;-64
2023/10/15 16:07:15;;;;;;;6.22;2.88;;;;;;;;;;10380348;28;20492;-64
2023/10/15 16:12:17;;;;;;;10.85;2.75;;;;;;;;;;10380559;28;20490;-62
2023/10/15 16:17:20;;;;;;;7.18;2.42;;;;;;;;;;10379954;28;20493;-60
2023/10/15 16:22:24;;;;;;;6.05;2.40;;;;;;;;;;10380289;28;20044;-63
2023/10/15 16:27:26;;;;;;;5.30;1.80;;;;;;;;;;10379517;28;20373;-62
2023/10/15 16:32:28;;;;;;;3.25;2.35;;;;;;;;;;10379880;28;20037;-61
2023/10/15 16:37:30;;;;;;;3.92;1.52;;;;;;;;;;10379249;28;20117;-62
2023/10/15 16:42:32;;;;;;;8.93;1.67;;;;;;;;;;10380151;28;20030;-63
2023/10/15 16:47:38;;;;;;;3.83;1.75;;;;;;;;;;10378753;28;20034;-64
2023/10/15 16:52:39;;;;;;;3.13;1.27;;;;;;;;;;10378766;28;20036;-63
2023/10/15 16:57:41;;;;;;;4.40;1.85;;;;;;;;;;10360812;28;20426;-62
2023/10/15 17:02:43;;;;;;;3.95;1.80;;;;;;;;;;10378777;28;20030;-63
2023/10/15 17:07:45;;;;;;;8.95;1.80;;;;;;;;;;10378603;28;20038;-63
2023/10/15 17:12:47;;;;;;;7.15;1.80;;;;;;;;;;10378098;28;20137;-61
2023/10/15 17:17:49;;;;;;;2.28;1.65;;;;;;;;;;10378769;28;20049;-61
2023/10/15 17:22:51;;;;;;;4.57;1.70;;;;;;;;;;10377227;28;20042;-61
2023/10/15 17:27:53;;;;;;;3.85;1.52;;;;;;;;;;10377225;28;20488;-63
2023/10/15 17:32:54;;;;;;;4.15;1.38;;;;;;;;;;10376903;28;20037;-63
2023/10/15 17:37:57;;;;;;;2.38;1.35;;;;;;;;;;10376688;28;20184;-62
2023/10/15 17:42:58;;;;;;;4.55;1.30;;;;;;;;;;10377106;28;20029;-59
2023/10/15 17:48:00;;;;;;;2.42;1.40;;;;;;;;;;10376294;28;20029;-63
2023/10/15 17:53:05;;;;;;;3.35;1.42;;;;;;;;;;10376098;28;20029;-63
2023/10/15 17:58:07;;;;;;;8.40;1.70;;;;;;;;;;10376009;28;20052;-63
2023/10/15 18:03:09;;;;;;;4.93;1.58;;;;;;;;;;10375285;28;20030;-63
2023/10/15 18:08:11;;;;;;;6.40;1.60;;;;;;;;;;10375480;28;20034;-62
2023/10/15 18:13:13;;;;;;;6.82;1.63;;;;;;;;;;10375255;28;20133;-63
2023/10/15 18:18:15;;;;;;;6.97;1.80;;;;;;;;;;10375992;28;20067;-62
2023/10/15 18:23:18;;;;;;;4.57;1.52;;;;;;;;;;10375018;28;20033;-58
2023/10/15 18:28:19;;;;;;;7.65;1.27;;;;;;;;;;10375062;28;20041;-63
2023/10/15 18:33:23;;;;;;;2.17;1.42;;;;;;;;;;10374845;28;20029;-63
2023/10/15 18:38:26;;;;;;;4.03;1.40;;;;;;;;;;10374697;28;20390;-63
2023/10/15 18:43:27;;;;;;;6.65;1.60;;;;;;;;;;10374399;28;20101;-61
2023/10/15 18:48:29;;;;;;;5.60;1.40;;;;;;;;;;10374569;28;20026;-62
2023/10/15 18:53:31;;;;;;;1.55;1.10;;;;;;;;;;10374212;28;20041;-61
2023/10/15 18:58:33;;;;;;;6.88;1.67;;;;;;;;;;10375559;28;20021;-61
2023/10/15 19:03:35;;;;;;;5.05;1.20;;;;;;;;;;10375343;28;20030;-61
2023/10/15 19:08:36;;;;;;;3.75;1.30;;;;;;;;;;10374203;28;20029;-61
2023/10/15 19:13:37;;;;;;;2.92;1.33;;;;;;;;;;10374090;28;20071;-59
2023/10/15 19:18:44;;;;;;;1.75;1.10;;;;;;;;;;10380997;28;20470;-58
2023/10/15 19:23:46;;;;;;;1.50;1.33;;;;;;;;;;10381917;28;20150;-62
2023/10/15 19:28:50;;;;;;;5.28;1.20;;;;;;;;;;10381871;28;20022;-61
2023/10/15 19:33:52;;;;;;;2.60;1.10;;;;;;;;;;10381421;28;20133;-60
2023/10/15 19:38:54;;;;;;;1.45;1.10;;;;;;;;;;10381397;28;20037;-61
2023/10/15 19:43:56;;;;;;;1.90;1.10;;;;;;;;;;10381257;28;20040;-62
2023/10/15 19:48:58;;;;;;;2.53;1.15;;;;;;;;;;10381686;28;20112;-59
2023/10/15 19:54:00;;;;;;;5.10;1.25;;;;;;;;;;10381227;28;20030;-63
2023/10/15 19:59:01;;;;;;;1.85;1.10;;;;;;;;;;10381348;28;20416;-61
2023/10/15 20:04:07;;;;;;;1.25;1.15;;;;;;;;;;10380492;28;20048;-59
2023/10/15 20:09:09;;;;;;;1.63;1.00;;;;;;;;;;10380380;28;20056;-62
2023/10/15 20:14:12;;;;;;;1.63;1.08;;;;;;;;;;10362487;28;20553;-60
2023/10/15 20:19:14;;;;;;;7.03;1.77;;;;;;;;;;10381189;28;20034;-63
2023/10/15 20:24:15;;;;;;;4.07;1.02;;;;;;;;;;10345941;28;20088;-60
2023/10/15 20:29:17;;;;;;;11.15;1.48;;;;;;;;;;10378786;28;20030;-64
2023/10/15 20:34:18;;;;;;;3.83;1.33;;;;;;;;;;10379271;28;20084;-62
2023/10/15 20:39:21;;;;;;;4.82;1.45;;;;;;;;;;10379258;28;20385;-64
2023/10/15 20:44:24;;;;;;;6.90;1.95;;;;;;;;;;10378746;28;20034;-62
2023/10/15 20:49:27;;;;;;;3.67;1.45;;;;;;;;;;10377484;28;20032;-62
2023/10/15 20:54:29;;;;;;;1.98;1.15;;;;;;;;;;10378411;28;20044;-63
2023/10/15 20:59:30;;;;;;;3.78;1.30;;;;;;;;;;10360668;28;20068;-64
2023/10/15 21:04:32;;;;;;;3.97;1.17;;;;;;;;;;10378249;28;20032;-61
2023/10/15 21:09:33;;;;;;;3.08;1.08;;;;;;;;;;10377952;28;20030;-62
2023/10/15 21:14:36;;;;;;;2.10;1.10;;;;;;;;;;10377589;28;20053;-62
2023/10/15 21:19:38;;;;;;;4.03;1.15;;;;;;;;;;10378154;28;20049;-63
2023/10/15 21:24:40;;;;;;;3.53;1.00;;;;;;;;;;10377437;28;20065;-62
2023/10/15 21:29:43;;;;;;;1.20;0.95;;;;;;;;;;10377170;28;20030;-63
2023/10/15 21:34:45;;;;;;;1.05;0.90;;;;;;;;;;10377507;28;20030;-62
2023/10/15 21:39:48;;;;;;;2.13;1.00;;;;;;;;;;10377005;28;20125;-61
2023/10/15 21:44:50;;;;;;;0.70;0.70;;;;;;;;;;10359620;28;20021;-62
2023/10/15 21:49:52;;;;;;;1.60;0.98;;;;;;;;;;10376440;28;20029;-63
2023/10/15 21:54:54;;;;;;;2.95;1.00;;;;;;;;;;10376865;28;20030;-62
2023/10/15 21:59:55;;;;;;;0.70;0.70;;;;;;;;;;10376656;28;20025;-62
2023/10/15 22:04:57;;;;;;;2.40;1.05;;;;;;;;;;10376054;28;20062;-61
2023/10/15 22:09:59;;;;;;;1.42;1.00;;;;;;;;;;10376299;28;20022;-63
2023/10/15 22:15:02;;;;;;;1.00;0.90;;;;;;;;;;10375438;28;20052;-64
2023/10/15 22:20:12;;;;;;;0.90;0.90;;;;;;;;;;10375442;28;20458;-62
2023/10/15 22:25:15;;;;;;;2.30;1.08;;;;;;;;;;10375229;28;20030;-63
2023/10/15 22:30:20;;;;;;;1.45;0.80;;;;;;;;;;10376284;28;20076;-63
2023/10/15 22:35:23;;;;;;;2.55;0.82;;;;;;;;;;10374929;28;20455;-62
2023/10/15 22:40:26;;;;;;;0.70;0.65;;;;;;;;;;10374719;28;20113;-63
2023/10/15 22:45:28;;;;;;;1.50;0.75;;;;;;;;;;10357396;28;20026;-63
2023/10/15 22:50:31;;;;;;;1.13;0.77;;;;;;;;;;10374852;28;20121;-62
2023/10/15 22:55:34;;;;;;;0.80;0.73;;;;;;;;;;10374917;28;20374;-59
2023/10/15 23:00:36;;;;;;;2.35;0.90;;;;;;;;;;10374293;28;20393;-59
2023/10/15 23:05:40;;;;;;;0.80;0.80;;;;;;;;;;10374879;28;20032;-60
2023/10/15 23:10:42;;;;;;;0.70;0.70;;;;;;;;;;10373809;28;20028;-60
2023/10/15 23:15:44;;;;;;;3.30;0.80;;;;;;;;;;10374674;28;20026;-60
2023/10/15 23:20:50;;;;;;;4.03;1.00;;;;;;;;;;10373958;28;20488;-60
2023/10/15 23:25:53;;;;;;;2.28;0.70;;;;;;;;;;10356343;28;20030;-63
2023/10/15 23:31:00;;;;;;;7.20;0.77;;;;;;;;;;10374142;28;20026;-60
2023/10/15 23:36:05;;;;;;;3.00;0.90;;;;;;;;;;10374223;28;20056;-60
2023/10/15 23:41:06;;;;;;;11.07;1.20;;;;;;;;;;10373520;28;20131;-60
2023/10/15 23:46:09;;;;;;;1.17;0.85;;;;;;;;;;10373524;28;20022;-60
2023/10/15 23:51:14;;;;;;;1.45;0.65;;;;;;;;;;10373778;28;20377;-60
2023/10/15 23:56:31;;;;;;;3.47;0.70;;;;;;;;;;10373253;28;20121;-60
